East Montpelier, Vermont
Current Conditions -  °F | °C
As of 1:51 AM on Saturday 20 Dec 2014 (Local Time) from KMPV Reporting Station
Clear Clear  
Wind Chill: -11°   Ceiling: Unl
Heat Index: -11°   Visibility: 10mi
Dew Point: -13°   Wind: 0mph
Humidity: 88%   Direction: NA
Pressure: 30.23"   Gusts: NA
Location:  44.27°N, 72.49°W
Report Text: KMPV 200651Z AUTO 00000KT 10SM CLR M11/M13 A3023 RMK AO2 SLP260 T11111128
Loading
Personal Weather Stations






























Interactive Weather Map New forecast layout! Learn more

10-Day Weather Forecast

Advertisements
Track Severe Weather on mobile